createdAt,value
2023-03-28T00:01:12.294Z,98974.69
2023-03-28T00:02:16.786Z,98972.72
2023-03-28T00:03:30.180Z,98976.19
2023-03-28T00:04:34.904Z,98968.31
2023-03-28T00:05:45.158Z,98958.91
2023-03-28T00:06:52.938Z,98965.19
2023-03-28T00:07:57.453Z,98966.97
2023-03-28T00:09:01.703Z,98961.72
2023-03-28T00:10:11.103Z,98963.66
2023-03-28T00:11:20.514Z,98961.91
2023-03-28T00:12:26.625Z,98963.56
2023-03-28T00:13:32.877Z,98967.09
2023-03-28T00:14:38.374Z,98964.34
2023-03-28T00:15:43.493Z,98960.28
2023-03-28T00:16:48.397Z,98970.69
2023-03-28T00:17:55.182Z,98964.84
2023-03-28T00:19:01.820Z,98971.00
2023-03-28T00:20:10.951Z,98964.84
2023-03-28T00:21:29.590Z,98960.19
2023-03-28T00:22:38.438Z,98963.66
2023-03-28T00:23:43.943Z,98960.00
2023-03-28T00:24:51.482Z,98952.06
2023-03-28T00:25:56.716Z,98961.63
2023-03-28T00:27:02.035Z,98958.03
2023-03-28T00:28:12.085Z,98964.16
2023-03-28T00:29:23.735Z,98958.75
2023-03-28T00:30:31.454Z,98948.25
2023-03-28T00:31:48.399Z,98960.72
2023-03-28T00:33:16.772Z,98957.25
2023-03-28T00:34:23.161Z,98962.56
2023-03-28T00:35:31.055Z,98963.28
2023-03-28T00:36:39.468Z,98957.19
2023-03-28T00:37:45.943Z,98956.47
2023-03-28T00:38:52.504Z,98959.09
2023-03-28T00:40:02.022Z,98965.94
2023-03-28T00:41:16.244Z,98966.09
2023-03-28T00:42:27.869Z,98967.16
2023-03-28T00:43:43.236Z,98966.25
2023-03-28T00:44:49.191Z,98968.91
2023-03-28T00:46:02.662Z,98972.59
2023-03-28T00:47:28.626Z,98964.97
2023-03-28T00:48:33.865Z,98965.91
2023-03-28T00:49:39.645Z,98971.13
2023-03-28T00:50:49.996Z,98961.56
2023-03-28T00:52:01.723Z,98970.34
2023-03-28T00:53:23.589Z,98969.28
2023-03-28T00:54:40.729Z,98977.41
2023-03-28T00:55:57.808Z,98974.84
2023-03-28T00:57:04.107Z,98977.63
2023-03-28T00:58:25.823Z,98973.16
2023-03-28T00:59:38.092Z,98976.63
2023-03-28T01:00:42.384Z,98981.81
2023-03-28T01:01:47.878Z,98979.38
2023-03-28T01:02:58.599Z,98981.09
2023-03-28T01:04:04.098Z,98978.53
2023-03-28T01:05:14.390Z,98974.94
2023-03-28T01:06:22.406Z,98974.16
2023-03-28T01:07:33.834Z,98981.56
2023-03-28T01:08:43.103Z,98978.09
2023-03-28T01:09:52.980Z,98970.50
2023-03-28T01:11:14.444Z,98981.03
2023-03-28T01:12:22.106Z,98974.22
2023-03-28T01:13:34.417Z,98977.88
2023-03-28T01:14:40.342Z,98976.28
2023-03-28T01:15:50.093Z,98980.75
2023-03-28T01:16:59.641Z,98984.97
2023-03-28T01:18:12.808Z,98979.09
2023-03-28T01:20:14.924Z,98973.41
2023-03-28T01:22:16.493Z,98983.78
2023-03-28T01:23:37.671Z,98978.59
2023-03-28T01:25:53.985Z,98979.44
2023-03-28T01:27:47.366Z,98973.97
2023-03-28T01:29:27.587Z,98973.03
2023-03-28T01:31:13.420Z,98973.28
2023-03-28T01:32:34.078Z,98975.16
2023-03-28T01:34:06.645Z,98970.91
2023-03-28T01:36:11.030Z,98971.53
2023-03-28T01:38:16.262Z,98966.59
2023-03-28T01:40:02.090Z,98972.50
2023-03-28T01:41:41.578Z,98971.63
2023-03-28T01:42:57.391Z,98971.69
2023-03-28T01:44:32.532Z,98968.31
2023-03-28T01:46:12.058Z,98968.22
2023-03-28T01:47:39.694Z,98972.50
2023-03-28T01:49:32.070Z,98968.03
2023-03-28T01:50:51.581Z,98975.88
2023-03-28T01:52:38.325Z,98978.47
2023-03-28T01:54:03.357Z,98974.75
2023-03-28T01:55:41.886Z,98974.75
2023-03-28T01:57:17.827Z,98970.19
2023-03-28T01:58:40.734Z,98978.19
2023-03-28T02:00:13.301Z,98980.78
2023-03-28T02:01:25.141Z,98986.09
2023-03-28T02:02:42.728Z,98982.00
2023-03-28T02:03:54.716Z,98983.88
2023-03-28T02:05:04.608Z,98983.81
2023-03-28T02:06:17.524Z,98982.88
2023-03-28T02:07:27.369Z,98973.28
2023-03-28T02:08:40.057Z,98978.47
2023-03-28T02:09:51.699Z,98974.25
2023-03-28T02:10:59.252Z,98978.56
2023-03-28T02:12:36.895Z,98976.16
2023-03-28T02:13:56.162Z,98968.47
2023-03-28T02:15:14.304Z,98979.72
2023-03-28T02:16:23.457Z,98970.91
2023-03-28T02:17:31.020Z,98970.09
2023-03-28T02:18:42.555Z,98975.25
2023-03-28T02:19:55.678Z,98971.84
2023-03-28T02:21:20.828Z,98973.63
2023-03-28T02:22:49.700Z,98972.78
2023-03-28T02:23:56.571Z,98978.88
2023-03-28T02:25:03.233Z,98972.69
2023-03-28T02:26:13.460Z,98972.84
2023-03-28T02:27:23.520Z,98971.16
2023-03-28T02:28:32.119Z,98968.47
2023-03-28T02:29:39.412Z,98968.59
2023-03-28T02:30:45.888Z,98966.84
2023-03-28T02:31:50.945Z,98968.69
2023-03-28T02:33:15.093Z,98959.19
2023-03-28T02:34:20.548Z,98966.13
2023-03-28T02:35:36.142Z,98961.69
2023-03-28T02:37:20.081Z,98962.66
2023-03-28T02:38:56.802Z,98959.06
2023-03-28T02:40:14.089Z,98964.94
2023-03-28T02:42:02.272Z,98963.28
2023-03-28T02:43:23.871Z,98963.34
2023-03-28T02:45:25.023Z,98961.75
2023-03-28T02:47:01.079Z,98959.19
2023-03-28T02:48:47.877Z,98962.78
2023-03-28T02:50:19.108Z,98955.91
2023-03-28T02:52:01.021Z,98950.78
2023-03-28T02:53:39.190Z,98959.56
2023-03-28T02:55:22.868Z,98950.09
2023-03-28T02:57:16.820Z,98962.41
2023-03-28T02:58:37.773Z,98965.41
2023-03-28T03:00:09.783Z,98968.78
2023-03-28T03:01:14.949Z,98961.16
2023-03-28T03:02:22.551Z,98966.25
2023-03-28T03:03:26.694Z,98968.78
2023-03-28T03:04:31.152Z,98966.16
2023-03-28T03:05:35.804Z,98961.84
2023-03-28T03:06:40.180Z,98960.22
2023-03-28T03:07:45.147Z,98958.63
2023-03-28T03:08:49.423Z,98961.53
2023-03-28T03:09:54.242Z,98965.81
2023-03-28T03:10:58.924Z,98966.88
2023-03-28T03:12:03.436Z,98968.63
2023-03-28T03:13:17.340Z,98976.69
2023-03-28T03:14:23.570Z,98969.00
2023-03-28T03:15:31.052Z,98969.84
2023-03-28T03:16:38.861Z,98967.16
2023-03-28T03:17:47.361Z,98973.19
2023-03-28T03:18:52.856Z,98959.31
2023-03-28T03:19:57.749Z,98963.69
2023-03-28T03:21:06.890Z,98957.59
2023-03-28T03:22:21.029Z,98956.81
2023-03-28T03:23:25.838Z,98968.91
2023-03-28T03:24:30.036Z,98967.09
2023-03-28T03:25:36.323Z,98964.53
2023-03-28T03:26:42.152Z,98968.84
2023-03-28T03:27:49.097Z,98967.00
2023-03-28T03:28:54.301Z,98965.44
2023-03-28T03:29:59.622Z,98963.50
2023-03-28T03:31:12.593Z,98967.22
2023-03-28T03:32:18.508Z,98962.66
2023-03-28T03:33:30.538Z,98964.25
2023-03-28T03:34:37.038Z,98959.75
2023-03-28T03:35:42.625Z,98958.97
2023-03-28T03:36:53.304Z,98957.97
2023-03-28T03:37:58.490Z,98963.06
2023-03-28T03:39:07.634Z,98961.31
2023-03-28T03:40:25.693Z,98955.13
2023-03-28T03:41:32.441Z,98948.13
2023-03-28T03:42:38.513Z,98951.38
2023-03-28T03:43:52.082Z,98949.63
2023-03-28T03:44:56.812Z,98953.06
2023-03-28T03:46:03.135Z,98958.31
2023-03-28T03:47:26.434Z,98966.16
2023-03-28T03:48:33.269Z,98960.69
2023-03-28T03:49:38.677Z,98956.97
2023-03-28T03:50:44.246Z,98958.66
2023-03-28T03:51:51.157Z,98958.34
2023-03-28T03:52:58.302Z,98946.81
2023-03-28T03:54:10.801Z,98952.75
2023-03-28T03:55:17.349Z,98951.00
2023-03-28T03:56:23.127Z,98956.00
2023-03-28T03:57:28.547Z,98955.88
2023-03-28T03:58:33.951Z,98953.16
2023-03-28T03:59:38.460Z,98945.94
2023-03-28T04:00:45.031Z,98939.00
2023-03-28T04:01:50.182Z,98943.22
2023-03-28T04:02:54.520Z,98960.47
2023-03-28T04:03:59.416Z,98948.28
2023-03-28T04:05:14.189Z,98950.84
2023-03-28T04:06:21.071Z,98963.13
2023-03-28T04:07:26.020Z,98959.72
2023-03-28T04:08:30.029Z,98967.56
2023-03-28T04:09:35.834Z,98955.47
2023-03-28T04:10:41.520Z,98962.28
2023-03-28T04:11:46.644Z,98958.16
2023-03-28T04:12:56.590Z,98959.72
2023-03-28T04:14:02.084Z,98957.03
2023-03-28T04:15:14.437Z,98957.72
2023-03-28T04:16:21.222Z,98961.19
2023-03-28T04:17:30.588Z,98961.31
2023-03-28T04:18:36.334Z,98957.88
2023-03-28T04:19:41.308Z,98965.03
2023-03-28T04:20:55.402Z,98964.94
2023-03-28T04:22:00.157Z,98961.41
2023-03-28T04:23:10.201Z,98967.34
2023-03-28T04:24:16.644Z,98963.94
2023-03-28T04:25:21.823Z,98968.31
2023-03-28T04:26:29.055Z,98964.66
2023-03-28T04:27:34.594Z,98963.94
2023-03-28T04:28:39.676Z,98961.41
2023-03-28T04:29:43.783Z,98961.56
2023-03-28T04:30:47.839Z,98972.09
2023-03-28T04:31:56.611Z,98967.78
2023-03-28T04:33:01.905Z,98965.09
2023-03-28T04:34:13.920Z,98963.25
2023-03-28T04:35:18.204Z,98970.44
2023-03-28T04:36:26.405Z,98967.94
2023-03-28T04:37:30.765Z,98960.09
2023-03-28T04:38:37.937Z,98962.63
2023-03-28T04:39:45.301Z,98956.31
2023-03-28T04:40:50.217Z,98955.41
2023-03-28T04:41:55.902Z,98953.00
2023-03-28T04:43:00.353Z,98953.16
2023-03-28T04:44:05.037Z,98958.25
2023-03-28T04:45:18.003Z,98958.38
2023-03-28T04:46:23.427Z,98966.88
2023-03-28T04:47:28.497Z,98959.84
2023-03-28T04:48:33.651Z,98967.63
2023-03-28T08:05:43.197Z,99068.50
2023-03-28T08:06:48.085Z,99064.28
2023-03-28T08:07:54.975Z,99073.13
2023-03-28T08:08:59.136Z,99065.63
2023-03-28T08:10:06.205Z,99067.25
2023-03-28T08:11:21.975Z,99071.78
2023-03-28T08:12:27.661Z,99073.25
2023-03-28T08:13:32.151Z,99072.53
2023-03-28T08:14:36.784Z,99070.22
2023-03-28T08:15:57.139Z,99065.56
2023-03-28T08:17:01.791Z,99076.66
2023-03-28T08:18:28.738Z,99076.50
2023-03-28T08:19:33.018Z,99069.31
2023-03-28T08:20:41.515Z,99079.19
2023-03-28T08:21:48.699Z,99096.69
2023-03-28T08:22:53.518Z,99096.75
2023-03-28T08:24:00.771Z,99115.97
2023-03-28T08:25:06.780Z,99104.81
2023-03-28T08:26:12.097Z,99110.38
2023-03-28T08:27:17.753Z,99099.06
2023-03-28T08:28:22.916Z,99106.28
2023-03-28T08:29:27.774Z,99104.69
2023-03-28T08:30:35.170Z,99105.63
2023-03-28T08:31:39.917Z,99112.97
2023-03-28T08:32:52.345Z,99106.53
2023-03-28T08:34:00.219Z,99119.22
2023-03-28T08:35:07.557Z,99115.22
2023-03-28T08:36:15.762Z,99110.09
2023-03-28T08:37:25.738Z,99114.97
2023-03-28T08:38:31.661Z,99114.03
2023-03-28T08:39:38.089Z,99118.19
2023-03-28T08:40:55.219Z,99113.47
2023-03-28T08:42:27.319Z,99125.00
2023-03-28T08:43:39.924Z,99125.91
2023-03-28T08:45:08.969Z,99124.03
2023-03-28T08:46:24.360Z,99125.66
2023-03-28T08:47:52.533Z,99123.72
2023-03-28T08:49:00.688Z,99121.88
2023-03-28T08:50:25.309Z,99126.88
2023-03-28T08:51:41.257Z,99126.94
2023-03-28T08:52:49.892Z,99135.66
2023-03-28T08:54:39.761Z,99143.13
2023-03-28T08:55:44.042Z,99146.75
2023-03-28T08:56:56.459Z,99145.91
2023-03-28T08:58:04.273Z,99152.19
2023-03-28T08:59:19.356Z,99154.81
2023-03-28T09:00:31.627Z,99159.34
2023-03-28T09:01:37.605Z,99161.25
2023-03-28T09:02:43.979Z,99155.13
2023-03-28T09:03:50.727Z,99156.84
2023-03-28T09:05:12.018Z,99160.28
2023-03-28T09:06:38.536Z,99164.47
2023-03-28T09:07:59.961Z,99159.81
2023-03-28T09:09:41.447Z,99158.50
2023-03-28T09:11:00.785Z,99158.63
2023-03-28T09:12:31.201Z,99174.81
2023-03-28T09:14:12.820Z,99168.63
2023-03-28T09:15:32.460Z,99174.66
2023-03-28T09:16:59.809Z,99173.03
2023-03-28T09:18:10.288Z,99182.00
2023-03-28T09:20:11.703Z,99193.53
2023-03-28T09:21:32.244Z,99196.78
2023-03-28T09:23:35.272Z,99182.88
2023-03-28T09:25:16.403Z,99203.97
2023-03-28T09:26:42.048Z,99210.13
2023-03-28T09:28:14.772Z,99221.50
2023-03-28T09:29:27.916Z,99214.97
2023-03-28T09:30:46.561Z,99220.75
2023-03-28T09:32:11.140Z,99206.94
2023-03-28T09:33:22.060Z,99222.19
2023-03-28T09:34:45.986Z,99220.47
2023-03-28T09:35:59.125Z,99223.34
2023-03-28T09:37:35.667Z,99214.53
2023-03-28T09:38:54.063Z,99227.50
2023-03-28T09:40:24.571Z,99254.69
2023-03-28T09:42:01.241Z,99238.19
2023-03-28T09:43:48.854Z,99235.75
2023-03-28T09:45:38.788Z,99244.28
2023-03-28T09:46:49.354Z,99231.13
2023-03-28T09:47:55.557Z,99240.22
2023-03-28T09:49:01.489Z,99243.13
2023-03-28T09:50:15.701Z,99231.53
2023-03-28T09:51:24.391Z,99229.69
2023-03-28T09:52:31.214Z,99228.56
2023-03-28T09:53:38.864Z,99222.38
2023-03-28T09:54:46.690Z,99230.19
2023-03-28T09:56:03.340Z,99236.25
2023-03-28T09:57:10.011Z,99237.28
2023-03-28T09:58:30.043Z,99221.59
2023-03-28T09:59:37.068Z,99250.50
2023-03-28T10:00:50.982Z,99242.75
2023-03-28T10:01:57.816Z,99244.13
2023-03-28T10:03:02.551Z,99250.78
2023-03-28T10:04:30.681Z,99237.72
2023-03-28T10:05:41.711Z,99227.81
2023-03-28T10:06:49.429Z,99246.28
2023-03-28T10:08:02.862Z,99222.31
2023-03-28T10:09:24.591Z,99238.78
2023-03-28T10:10:30.086Z,99232.41
2023-03-28T10:11:49.572Z,99231.28
2023-03-28T10:13:04.248Z,99245.31
2023-03-28T10:14:38.857Z,99240.91
2023-03-28T10:15:48.438Z,99235.59
2023-03-28T10:16:52.858Z,99248.47
2023-03-28T10:18:00.771Z,99250.03
2023-03-28T10:19:05.400Z,99249.75
2023-03-28T10:20:22.272Z,99244.06
2023-03-28T10:21:30.473Z,99228.34
2023-03-28T10:22:41.529Z,99242.47
2023-03-28T10:24:02.374Z,99235.09
2023-03-28T10:25:17.798Z,99245.25
2023-03-28T10:26:28.048Z,99260.78
2023-03-28T10:27:36.983Z,99239.72
2023-03-28T10:28:44.646Z,99249.72
2023-03-28T10:29:49.378Z,99254.13
2023-03-28T10:30:58.157Z,99234.56
2023-03-28T10:32:02.989Z,99228.78
2023-03-28T10:33:27.121Z,99244.72
2023-03-28T10:34:44.505Z,99257.50
2023-03-28T10:36:12.898Z,99262.94
2023-03-28T10:37:48.907Z,99257.97
2023-03-28T10:38:53.691Z,99277.16
2023-03-28T10:40:32.583Z,99264.28
2023-03-28T10:41:38.308Z,99253.84
2023-03-28T10:42:46.946Z,99262.19
2023-03-28T10:43:51.805Z,99265.53
2023-03-28T10:45:04.973Z,99274.41
2023-03-28T10:46:33.444Z,99262.19
2023-03-28T10:47:38.581Z,99263.88
2023-03-28T10:48:52.068Z,99277.63
2023-03-28T10:49:59.608Z,99272.84
2023-03-28T10:51:10.716Z,99270.94
2023-03-28T10:52:38.208Z,99286.66
2023-03-28T10:54:20.678Z,99295.31
2023-03-28T10:55:35.150Z,99309.06
2023-03-28T10:56:58.777Z,99287.50
2023-03-28T10:58:46.777Z,99286.53
2023-03-28T11:00:12.861Z,99295.75
2023-03-28T11:01:22.695Z,99317.47
2023-03-28T11:03:26.313Z,99314.25
2023-03-28T11:04:53.332Z,99310.22
2023-03-28T11:06:25.669Z,99303.94
2023-03-28T11:08:11.094Z,99298.53
2023-03-28T11:09:47.270Z,99293.84
2023-03-28T11:11:00.817Z,99291.28
2023-03-28T11:12:28.552Z,99295.47
2023-03-28T11:14:04.604Z,99304.13
2023-03-28T11:15:33.531Z,99291.34
2023-03-28T11:17:21.469Z,99294.25
2023-03-28T11:19:01.439Z,99296.81
2023-03-28T11:20:34.071Z,99297.22
2023-03-28T11:22:03.681Z,99315.44
2023-03-28T11:23:41.590Z,99300.03
2023-03-28T11:25:37.086Z,99299.94
2023-03-28T11:27:16.035Z,99303.22
2023-03-28T11:29:12.421Z,99292.09
2023-03-28T11:30:27.765Z,99291.38
2023-03-28T11:32:00.470Z,99277.81
2023-03-28T11:34:00.175Z,99296.19
2023-03-28T11:35:40.173Z,99305.25
2023-03-28T11:37:20.162Z,99291.03
2023-03-28T11:38:41.663Z,99300.72
2023-03-28T11:39:57.828Z,99299.97
2023-03-28T11:41:14.114Z,99309.19
2023-03-28T11:42:30.100Z,99322.38
2023-03-28T11:44:10.615Z,99312.44
2023-03-28T11:45:50.973Z,99322.13
2023-03-28T11:47:21.942Z,99311.84
2023-03-28T11:48:45.297Z,99300.00
2023-03-28T11:49:53.510Z,99306.47
2023-03-28T11:51:09.270Z,99293.16
2023-03-28T11:52:48.439Z,99306.47
2023-03-28T11:54:19.410Z,99291.75
2023-03-28T11:55:29.568Z,99305.06
2023-03-28T11:56:57.353Z,99301.22
2023-03-28T11:58:13.879Z,99293.78
2023-03-28T12:00:01.548Z,99274.00
2023-03-28T12:01:23.243Z,99299.75
2023-03-28T12:02:31.938Z,99300.31
2023-03-28T12:03:57.309Z,99300.22
2023-03-28T12:05:40.593Z,99309.53
2023-03-28T12:07:15.525Z,99305.94
2023-03-28T12:09:14.362Z,99314.72
2023-03-28T12:10:41.324Z,99291.56
2023-03-28T12:12:13.203Z,99301.53
2023-03-28T12:14:11.410Z,99299.34
2023-03-28T12:15:33.954Z,99298.41
2023-03-28T12:16:48.868Z,99303.22
2023-03-28T12:18:03.220Z,99305.75
2023-03-28T12:19:18.673Z,99304.13
2023-03-28T12:20:52.575Z,99300.88
2023-03-28T12:22:20.425Z,99319.59
2023-03-28T12:23:47.832Z,99305.94
2023-03-28T12:25:25.086Z,99314.88
2023-03-28T12:27:16.391Z,99305.88
2023-03-28T12:28:32.302Z,99308.63
2023-03-28T12:29:53.841Z,99298.25
2023-03-28T12:31:14.993Z,99299.81
2023-03-28T12:32:47.168Z,99302.31
2023-03-28T12:36:29.348Z,99306.94
2023-03-28T12:37:58.453Z,99298.31
2023-03-28T12:39:16.590Z,99302.66
2023-03-28T12:41:14.525Z,99306.94
2023-03-28T12:42:27.113Z,99320.16
2023-03-28T12:44:23.382Z,99310.50
2023-03-28T12:45:44.256Z,99305.00
2023-03-28T12:47:12.827Z,99309.91
2023-03-28T12:48:45.729Z,99309.53
2023-03-28T12:50:47.955Z,99310.75
2023-03-28T12:51:59.883Z,99315.00
2023-03-28T12:53:13.271Z,99321.06
2023-03-28T12:54:17.299Z,99313.28
2023-03-28T12:55:27.382Z,99313.09
2023-03-28T12:56:32.040Z,99317.72
2023-03-28T12:57:44.860Z,99308.78
2023-03-28T12:58:52.946Z,99306.03
2023-03-28T13:00:31.780Z,99313.16
2023-03-28T13:01:52.007Z,99313.00
2023-03-28T13:03:32.799Z,99326.53
2023-03-28T13:04:52.553Z,99327.31
2023-03-28T13:06:34.669Z,99358.91
2023-03-28T13:08:18.910Z,99368.88
2023-03-28T13:09:42.859Z,99357.53
2023-03-28T13:11:17.546Z,99381.53
2023-03-28T13:13:15.887Z,99396.31
2023-03-28T13:14:43.266Z,99395.94
2023-03-28T13:16:08.577Z,99376.50
2023-03-28T13:17:27.497Z,99375.38
2023-03-28T13:18:36.298Z,99381.78
2023-03-28T13:20:21.852Z,99372.44
2023-03-28T13:21:49.791Z,99365.66
2023-03-28T13:23:03.348Z,99377.03
2023-03-28T13:24:29.972Z,99377.03
2023-03-28T13:25:39.087Z,99362.94
2023-03-28T13:27:28.768Z,99374.75
2023-03-28T13:28:51.826Z,99374.53
2023-03-28T13:30:26.896Z,99365.16
2023-03-28T13:31:33.540Z,99361.59
2023-03-28T13:32:47.276Z,99362.06
2023-03-28T13:34:02.155Z,99363.50
2023-03-28T13:35:32.719Z,99357.03
2023-03-28T13:36:37.577Z,99351.22
2023-03-28T13:37:45.176Z,99351.88
2023-03-28T13:39:26.746Z,99350.84
2023-03-28T13:41:25.150Z,99353.84
2023-03-28T13:42:37.108Z,99355.94
2023-03-28T13:43:51.684Z,99356.59
2023-03-28T13:45:21.442Z,99362.66
2023-03-28T13:46:40.927Z,99370.34
2023-03-28T13:47:46.549Z,99372.91
2023-03-28T13:49:13.528Z,99373.88
2023-03-28T13:50:31.942Z,99373.03
2023-03-28T13:52:13.846Z,99377.44
2023-03-28T13:53:18.844Z,99383.84
2023-03-28T13:54:30.513Z,99387.78
2023-03-28T13:55:36.246Z,99394.47
2023-03-28T13:56:47.462Z,99398.94
2023-03-28T13:58:02.816Z,99413.97
2023-03-28T13:59:27.592Z,99456.28
2023-03-28T14:00:32.804Z,99466.00
2023-03-28T14:01:54.702Z,99453.03
2023-03-28T14:03:14.943Z,99443.63
2023-03-28T14:04:35.416Z,99480.56
2023-03-28T14:05:45.767Z,99475.47
2023-03-28T14:06:52.225Z,99464.59
2023-03-28T14:08:14.315Z,99471.53
2023-03-28T14:09:33.882Z,99460.00
2023-03-28T14:10:43.500Z,99463.03
2023-03-28T14:11:49.996Z,99451.09
2023-03-28T14:13:20.061Z,99455.13
2023-03-28T14:14:42.108Z,99464.00
2023-03-28T14:15:56.589Z,99458.09
2023-03-28T14:17:12.380Z,99447.66
2023-03-28T14:18:36.341Z,99454.94
2023-03-28T14:19:47.748Z,99441.00
2023-03-28T14:20:56.978Z,99445.31
2023-03-28T14:22:01.389Z,99442.50
2023-03-28T14:23:33.466Z,99443.88
2023-03-28T14:24:39.860Z,99443.69
2023-03-28T14:25:44.258Z,99434.72
2023-03-28T14:26:48.451Z,99453.00
2023-03-28T14:27:58.494Z,99448.28
2023-03-28T14:29:11.451Z,99447.19
2023-03-28T14:30:55.098Z,99454.81
2023-03-28T14:31:59.767Z,99452.06
2023-03-28T14:33:14.638Z,99455.28
2023-03-28T14:34:24.961Z,99448.06
2023-03-28T14:35:35.691Z,99453.09
2023-03-28T14:37:18.829Z,99454.69
2023-03-28T14:38:34.804Z,99453.47
2023-03-28T14:39:39.293Z,99460.28
2023-03-28T14:40:45.932Z,99456.66
2023-03-28T14:41:51.130Z,99440.69
2023-03-28T14:43:13.560Z,99460.66
2023-03-28T14:44:18.166Z,99449.88
2023-03-28T14:45:27.101Z,99441.72
2023-03-28T14:46:35.842Z,99442.41
2023-03-28T14:49:13.864Z,99458.00
2023-03-28T14:50:22.488Z,99442.00
2023-03-28T14:51:28.560Z,99456.00
2023-03-28T14:52:36.839Z,99447.97
2023-03-28T14:53:47.799Z,99443.34
2023-03-28T14:54:52.608Z,99449.38
2023-03-28T14:56:11.949Z,99443.00
2023-03-28T14:57:18.641Z,99441.00
2023-03-28T14:58:24.405Z,99450.47
2023-03-28T14:59:45.824Z,99448.56
2023-03-28T15:00:56.138Z,99459.81
2023-03-28T15:02:02.689Z,99459.69
2023-03-28T15:03:16.662Z,99449.97
2023-03-28T15:04:27.632Z,99455.13
2023-03-28T15:05:38.233Z,99452.44
2023-03-28T15:06:43.368Z,99449.25
2023-03-28T15:08:00.495Z,99452.25
2023-03-28T15:09:28.008Z,99444.41
2023-03-28T15:10:33.877Z,99453.19
2023-03-28T15:11:44.180Z,99455.22
2023-03-28T15:13:04.472Z,99466.72
2023-03-28T15:14:32.255Z,99449.19
2023-03-28T15:15:46.247Z,99459.81
2023-03-28T15:16:51.024Z,99457.19
2023-03-28T15:18:01.500Z,99453.66
2023-03-28T15:19:26.322Z,99454.75
2023-03-28T15:20:37.004Z,99459.13
2023-03-28T15:21:43.875Z,99461.03
2023-03-28T15:22:59.626Z,99456.75
2023-03-28T15:24:12.674Z,99461.06
2023-03-28T15:25:19.408Z,99472.75
2023-03-28T15:26:43.070Z,99469.31
2023-03-28T15:27:56.790Z,99463.16
2023-03-28T15:29:02.603Z,99464.13
2023-03-28T15:30:22.028Z,99468.31
2023-03-28T15:31:28.328Z,99468.19
2023-03-28T15:32:34.306Z,99483.88
2023-03-28T15:33:39.281Z,99471.34
2023-03-28T15:34:48.130Z,99484.44
2023-03-28T15:36:16.463Z,99501.16
2023-03-28T15:37:25.949Z,99496.84
2023-03-28T15:38:37.219Z,99486.25
2023-03-28T15:39:42.199Z,99503.00
2023-03-28T15:40:50.520Z,99493.47
2023-03-28T15:42:23.496Z,99500.25
2023-03-28T15:43:27.471Z,99503.66
2023-03-28T15:44:36.139Z,99501.16
2023-03-28T15:45:44.633Z,99513.22
2023-03-28T15:46:49.808Z,99495.84
2023-03-28T15:47:56.377Z,99499.34
2023-03-28T15:49:03.456Z,99505.63
2023-03-28T15:50:18.447Z,99510.06
2023-03-28T15:51:22.574Z,99517.09
2023-03-28T15:52:27.729Z,99514.75
2023-03-28T15:53:32.361Z,99518.31
2023-03-28T15:54:44.143Z,99515.81
2023-03-28T15:55:52.131Z,99517.03
2023-03-28T15:56:59.515Z,99521.94
2023-03-28T15:58:07.100Z,99517.16
2023-03-28T15:59:58.139Z,99513.97
2023-03-28T16:01:38.928Z,99514.91
2023-03-28T16:02:44.407Z,99518.50
2023-03-28T16:03:50.953Z,99522.84
2023-03-28T16:05:34.970Z,99530.06
2023-03-28T16:06:44.116Z,99527.44
2023-03-28T16:07:54.448Z,99530.88
2023-03-28T16:09:24.423Z,99530.88
2023-03-28T16:10:30.371Z,99532.59
2023-03-28T16:11:34.563Z,99527.50
2023-03-28T16:12:38.647Z,99531.84
2023-03-28T16:13:43.041Z,99534.53
2023-03-28T16:14:54.944Z,99534.53
2023-03-28T16:15:59.303Z,99540.78
2023-03-28T16:17:11.922Z,99535.47
2023-03-28T16:18:16.109Z,99537.16
2023-03-28T16:19:27.353Z,99549.22
2023-03-28T16:20:31.840Z,99544.97
2023-03-28T16:21:36.087Z,99548.34
2023-03-28T16:22:52.515Z,99548.50
2023-03-28T16:23:57.868Z,99546.78
2023-03-28T16:25:02.551Z,99542.41
2023-03-28T16:26:14.293Z,99542.53
2023-03-28T16:27:19.843Z,99548.72
2023-03-28T16:28:24.482Z,99547.16
2023-03-28T16:29:28.791Z,99553.25
2023-03-28T16:30:42.813Z,99552.50
2023-03-28T16:31:47.155Z,99556.09
2023-03-28T16:32:51.576Z,99553.38
2023-03-28T16:33:55.620Z,99549.75
2023-03-28T16:34:59.616Z,99556.84
2023-03-28T16:36:04.437Z,99560.31
2023-03-28T16:37:13.430Z,99569.91
2023-03-28T16:38:18.409Z,99566.34
2023-03-28T16:39:22.852Z,99568.00
2023-03-28T16:40:28.637Z,99562.53
2023-03-28T16:41:34.969Z,99573.81
2023-03-28T16:42:43.003Z,99566.06
2023-03-28T16:43:50.112Z,99559.97
2023-03-28T16:44:55.940Z,99567.84
2023-03-28T16:46:00.596Z,99560.84
2023-03-28T16:47:11.335Z,99563.44
2023-03-28T16:48:16.203Z,99572.84
2023-03-28T16:49:20.224Z,99574.41
2023-03-28T16:50:26.013Z,99581.34
2023-03-28T16:51:31.810Z,99573.50
2023-03-28T16:52:41.523Z,99573.72
2023-03-28T16:53:46.428Z,99585.94
2023-03-28T16:54:51.214Z,99587.66
2023-03-28T16:55:55.671Z,99585.81
2023-03-28T16:57:00.175Z,99590.94
2023-03-28T16:58:05.131Z,99594.63
2023-03-28T16:59:15.863Z,99588.59
2023-03-28T17:00:21.403Z,99591.13
2023-03-28T17:01:26.604Z,99598.25
2023-03-28T17:02:31.434Z,99597.50
2023-03-28T17:03:36.907Z,99613.44
2023-03-28T17:04:41.675Z,99616.00
2023-03-28T17:05:45.632Z,99612.91
2023-03-28T17:06:49.598Z,99607.84
2023-03-28T17:07:53.985Z,99613.09
2023-03-28T17:08:59.014Z,99609.88
2023-03-28T17:10:08.652Z,99622.06
2023-03-28T17:11:13.934Z,99621.28
2023-03-28T17:12:22.194Z,99617.94
2023-03-28T17:13:28.117Z,99632.81
2023-03-28T17:14:32.603Z,99637.94
2023-03-28T17:15:37.604Z,99649.47
2023-03-28T17:16:42.766Z,99644.97
2023-03-28T17:17:47.399Z,99656.31
2023-03-28T17:18:52.326Z,99649.47
2023-03-28T17:19:57.374Z,99664.34
2023-03-28T17:21:11.767Z,99673.31
2023-03-28T17:22:16.830Z,99678.38
2023-03-28T17:23:22.621Z,99678.53
2023-03-28T17:24:27.345Z,99676.91
2023-03-28T17:25:36.758Z,99694.47
2023-03-28T17:26:45.988Z,99676.91
2023-03-28T17:27:51.176Z,99691.59
2023-03-28T17:28:58.834Z,99674.97
2023-03-28T17:30:03.414Z,99688.25
2023-03-28T17:31:22.224Z,99688.38
2023-03-28T17:32:26.777Z,99691.91
2023-03-28T17:33:31.495Z,99688.44
2023-03-28T17:34:36.977Z,99689.28
2023-03-28T17:35:41.486Z,99689.41
2023-03-28T17:36:46.356Z,99692.16
2023-03-28T17:37:53.272Z,99697.53
2023-03-28T17:38:59.061Z,99695.00
2023-03-28T17:40:03.794Z,99698.63
2023-03-28T17:41:14.398Z,99696.91
2023-03-28T17:42:20.413Z,99699.47
2023-03-28T17:43:25.672Z,99709.19
2023-03-28T17:44:30.130Z,99706.63
2023-03-28T17:45:35.242Z,99704.84
2023-03-28T17:46:40.732Z,99711.09
2023-03-28T17:47:45.459Z,99715.50
2023-03-28T17:48:51.553Z,99708.50
2023-03-28T17:50:03.617Z,99709.34
2023-03-28T17:51:13.644Z,99722.28
2023-03-28T17:52:18.482Z,99720.75
2023-03-28T17:53:23.930Z,99720.00
2023-03-28T17:54:32.930Z,99722.50
2023-03-28T17:55:37.733Z,99720.78
2023-03-28T17:56:42.997Z,99726.81
2023-03-28T17:57:47.636Z,99726.03
2023-03-28T17:58:52.294Z,99735.50
2023-03-28T17:59:57.082Z,99735.56
2023-03-28T18:01:01.915Z,99731.84
2023-03-28T18:02:06.980Z,99736.03
2023-03-28T18:03:12.106Z,99738.63
2023-03-28T18:04:18.439Z,99741.31
2023-03-28T18:05:23.614Z,99741.19
2023-03-28T18:06:28.255Z,99740.34
2023-03-28T18:07:36.485Z,99746.56
2023-03-28T18:08:45.435Z,99748.31